createdAt,value
2018-05-10T00:01:15.131Z,94.20
2018-05-10T00:03:42.580Z,94.00
2018-05-10T00:06:10.810Z,93.60
2018-05-10T00:08:38.278Z,93.50
2018-05-10T00:11:05.730Z,93.30
2018-05-10T00:13:33.151Z,93.20
2018-05-10T00:16:00.611Z,93.50
2018-05-10T00:18:28.043Z,93.60
2018-05-10T00:20:55.461Z,93.50
2018-05-10T00:23:22.906Z,93.40
2018-05-10T00:25:50.359Z,93.10
2018-05-10T00:28:17.786Z,93.10
2018-05-10T00:30:45.230Z,93.10
2018-05-10T00:33:12.666Z,92.80
2018-05-10T00:35:40.864Z,93.80
2018-05-10T00:38:08.289Z,93.30
2018-05-10T00:40:35.722Z,93.40
2018-05-10T00:43:03.175Z,93.60
2018-05-10T00:45:30.612Z,93.70
2018-05-10T00:47:58.049Z,93.60
2018-05-10T00:50:25.488Z,93.70
2018-05-10T00:52:53.691Z,94.20
2018-05-10T00:55:21.153Z,94.20
2018-05-10T00:57:48.609Z,94.50
2018-05-10T01:00:16.043Z,94.50
2018-05-10T01:02:43.463Z,94.20
2018-05-10T01:05:10.906Z,94.20
2018-05-10T01:07:38.354Z,94.50
2018-05-10T01:10:05.784Z,94.70
2018-05-10T01:12:33.230Z,94.70
2018-05-10T01:15:00.753Z,94.90
2018-05-10T01:17:28.206Z,94.80
2018-05-10T01:19:55.639Z,95.10
2018-05-10T01:22:23.058Z,95.00
2018-05-10T01:24:50.504Z,95.00
2018-05-10T01:27:18.719Z,95.20
2018-05-10T01:29:46.164Z,95.10
2018-05-10T01:32:13.626Z,95.10
2018-05-10T01:34:41.850Z,95.30
2018-05-10T01:37:10.047Z,95.70
2018-05-10T01:39:37.474Z,95.40
2018-05-10T01:42:04.930Z,95.40
2018-05-10T01:44:32.371Z,95.40
2018-05-10T01:46:59.830Z,95.20
2018-05-10T01:49:27.258Z,94.90
2018-05-10T01:51:54.705Z,94.90
2018-05-10T01:54:22.114Z,94.70
2018-05-10T01:56:49.683Z,94.60
2018-05-10T01:59:17.118Z,94.30
2018-05-10T02:01:44.586Z,94.70
2018-05-10T02:04:12.021Z,94.80
2018-05-10T02:06:39.473Z,95.00
2018-05-10T02:09:06.910Z,95.30
2018-05-10T02:11:34.349Z,95.50
2018-05-10T02:14:02.552Z,95.80
2018-05-10T02:16:29.979Z,95.80
2018-05-10T02:18:57.416Z,95.80
2018-05-10T02:21:24.855Z,96.40
2018-05-10T02:23:52.287Z,96.70
2018-05-10T02:26:19.714Z,97.50
2018-05-10T02:28:47.142Z,98.00
2018-05-10T02:31:15.368Z,99.40
2018-05-10T02:33:42.801Z,99.30
2018-05-10T02:36:10.232Z,99.90
2018-05-10T02:38:37.678Z,99.90
2018-05-10T02:41:05.200Z,99.90
2018-05-10T02:43:33.323Z,99.90
2018-05-10T02:46:01.514Z,99.90
2018-05-10T02:48:28.972Z,99.90
2018-05-10T02:50:56.405Z,99.90
2018-05-10T02:53:24.625Z,99.90
2018-05-10T02:55:52.065Z,99.90
2018-05-10T02:58:19.511Z,99.90
2018-05-10T03:00:46.986Z,99.90
2018-05-10T03:03:14.415Z,99.90
2018-05-10T03:05:41.848Z,99.90
2018-05-10T03:08:09.291Z,99.90
2018-05-10T03:10:36.739Z,99.90
2018-05-10T03:13:04.166Z,99.90
2018-05-10T03:15:31.614Z,99.90
2018-05-10T03:17:59.051Z,99.90
2018-05-10T03:20:27.272Z,99.90
2018-05-10T03:22:54.747Z,99.90
2018-05-10T03:25:22.189Z,99.90
2018-05-10T03:27:49.649Z,99.90
2018-05-10T03:30:17.098Z,99.90
2018-05-10T03:32:44.534Z,99.90
2018-05-10T03:35:11.958Z,99.90
2018-05-10T03:37:39.390Z,99.90
2018-05-10T03:40:06.841Z,99.90
2018-05-10T03:42:34.279Z,99.90
2018-05-10T03:45:01.711Z,99.90
2018-05-10T03:47:29.152Z,99.90
2018-05-10T03:49:56.590Z,99.90
2018-05-10T03:52:24.022Z,99.90
2018-05-10T03:54:51.469Z,99.90
2018-05-10T03:57:18.895Z,99.90
2018-05-10T03:59:46.342Z,99.90
2018-05-10T04:02:13.853Z,99.90
2018-05-10T04:04:52.811Z,99.90
2018-05-10T04:07:32.085Z,99.90
2018-05-10T04:10:11.342Z,99.90
2018-05-10T04:12:38.814Z,99.90
2018-05-10T04:15:06.258Z,99.90
2018-05-10T04:17:33.739Z,99.90
2018-05-10T04:20:01.182Z,99.90
2018-05-10T04:22:28.623Z,99.90
2018-05-10T04:24:56.073Z,99.90
2018-05-10T04:27:23.539Z,99.90
2018-05-10T04:29:51.045Z,99.90
2018-05-10T04:32:18.406Z,99.90
2018-05-10T04:34:46.627Z,99.90
2018-05-10T04:37:14.058Z,99.90
2018-05-10T04:39:41.485Z,99.90
2018-05-10T04:42:08.935Z,99.90
2018-05-10T04:44:36.398Z,99.90
2018-05-10T04:47:03.812Z,99.90
2018-05-10T04:49:31.350Z,99.90
2018-05-10T04:51:58.786Z,99.90
2018-05-10T04:54:26.210Z,99.90
2018-05-10T04:56:53.654Z,99.90
2018-05-10T04:59:21.096Z,99.90
2018-05-10T05:01:48.534Z,99.90
2018-05-10T05:04:16.146Z,99.90
2018-05-10T05:06:43.602Z,99.90
2018-05-10T05:09:11.038Z,99.90
2018-05-10T05:11:38.490Z,99.90
2018-05-10T05:14:05.934Z,99.90
2018-05-10T05:16:33.366Z,99.90
2018-05-10T05:19:00.809Z,99.90
2018-05-10T05:21:28.278Z,99.80
2018-05-10T05:23:55.671Z,99.20
2018-05-10T05:26:23.132Z,98.60
2018-05-10T05:28:50.572Z,97.90
2018-05-10T05:31:17.995Z,97.10
2018-05-10T05:33:46.204Z,95.70
2018-05-10T05:36:13.635Z,95.70
2018-05-10T05:38:41.083Z,95.20
2018-05-10T05:41:08.516Z,95.00
2018-05-10T05:43:36.027Z,94.60
2018-05-10T05:46:03.378Z,94.20
2018-05-10T05:48:30.835Z,93.60
2018-05-10T05:50:58.247Z,93.80
2018-05-10T05:53:25.678Z,93.20
2018-05-10T05:55:53.131Z,93.20
2018-05-10T05:58:20.558Z,93.00
2018-05-10T06:00:48.012Z,93.50
2018-05-10T06:03:15.419Z,93.70
2018-05-10T06:05:42.877Z,93.40
2018-05-10T06:08:10.330Z,93.20
2018-05-10T06:10:37.767Z,92.10
2018-05-10T06:13:05.203Z,90.00
2018-05-10T06:15:32.728Z,90.10
2018-05-10T06:18:00.847Z,89.30
2018-05-10T06:20:28.274Z,89.20
2018-05-10T06:22:55.702Z,87.20
2018-05-10T06:25:23.142Z,86.10
2018-05-10T06:27:50.565Z,84.30
2018-05-10T06:30:18.006Z,82.80
2018-05-10T06:32:45.454Z,81.80
2018-05-10T06:35:12.906Z,78.80
2018-05-10T06:37:40.312Z,77.20
2018-05-10T06:40:07.806Z,75.80
2018-05-10T06:42:35.241Z,75.10
2018-05-10T06:45:02.679Z,73.80
2018-05-10T06:47:30.107Z,71.10
2018-05-10T06:49:57.554Z,70.30
2018-05-10T06:52:25.742Z,68.10
2018-05-10T06:54:53.166Z,67.90
2018-05-10T06:57:20.601Z,66.30
2018-05-10T06:59:48.046Z,65.40
2018-05-10T07:02:15.586Z,63.10
2018-05-10T07:04:42.990Z,62.10
2018-05-10T07:07:10.415Z,61.40
2018-05-10T07:09:37.929Z,60.60
2018-05-10T07:12:05.289Z,60.30
2018-05-10T07:14:33.469Z,58.90
2018-05-10T07:17:00.926Z,58.70
2018-05-10T07:19:28.359Z,58.60
2018-05-10T07:21:55.786Z,58.60
2018-05-10T07:24:23.224Z,58.30
2018-05-10T07:26:50.650Z,58.40
2018-05-10T07:29:18.094Z,58.30
2018-05-10T07:31:46.304Z,58.60
2018-05-10T07:34:13.731Z,58.50
2018-05-10T07:36:41.173Z,59.70
2018-05-10T07:39:09.372Z,61.70
2018-05-10T07:41:36.801Z,61.60
2018-05-10T07:44:04.230Z,61.90
2018-05-10T07:46:31.661Z,62.00
2018-05-10T07:48:59.078Z,61.50
2018-05-10T07:51:26.506Z,62.00
2018-05-10T07:53:53.954Z,62.70
2018-05-10T07:56:21.403Z,63.70
2018-05-10T07:58:48.867Z,63.50
2018-05-10T08:01:16.305Z,63.10
2018-05-10T08:03:43.770Z,63.10
2018-05-10T08:06:11.198Z,62.70
2018-05-10T08:08:38.746Z,62.90
2018-05-10T08:11:06.185Z,59.50
2018-05-10T08:13:33.615Z,56.60
2018-05-10T08:16:01.064Z,56.60
2018-05-10T08:18:28.507Z,57.20
2018-05-10T08:20:55.930Z,56.50
2018-05-10T08:23:24.138Z,56.70
2018-05-10T08:25:51.562Z,56.70
2018-05-10T08:28:18.995Z,56.80
2018-05-10T08:30:46.462Z,57.10
2018-05-10T08:33:13.906Z,57.30
2018-05-10T08:35:41.345Z,58.20
2018-05-10T08:38:08.777Z,59.50
2018-05-10T08:40:36.230Z,60.30
2018-05-10T08:43:03.658Z,59.80
2018-05-10T08:45:31.870Z,59.70
2018-05-10T08:47:59.322Z,59.60
2018-05-10T08:50:26.772Z,61.20
2018-05-10T08:52:55.119Z,60.90
2018-05-10T08:55:22.558Z,61.30
2018-05-10T08:57:49.979Z,61.40
2018-05-10T09:00:17.428Z,61.30
2018-05-10T09:02:44.877Z,59.40
2018-05-10T09:05:12.309Z,58.60
2018-05-10T09:07:40.505Z,57.70
2018-05-10T09:10:07.921Z,57.60
2018-05-10T09:12:35.370Z,57.40
2018-05-10T09:15:02.815Z,54.90
2018-05-10T09:17:30.262Z,54.70
2018-05-10T09:19:57.691Z,55.10
2018-05-10T09:22:25.146Z,55.60
2018-05-10T09:24:52.674Z,55.80
2018-05-10T09:27:20.115Z,55.30
2018-05-10T09:29:47.530Z,55.60
2018-05-10T09:32:14.982Z,55.90
2018-05-10T09:34:42.422Z,55.90
2018-05-10T09:37:09.847Z,55.60
2018-05-10T09:39:37.286Z,54.70
2018-05-10T09:42:04.722Z,53.80
2018-05-10T09:44:32.175Z,53.20
2018-05-10T09:46:59.595Z,52.00
2018-05-10T09:49:27.036Z,50.30
2018-05-10T09:51:54.451Z,49.30
2018-05-10T09:54:21.898Z,48.80
2018-05-10T09:56:49.348Z,47.80
2018-05-10T09:59:16.802Z,47.90
2018-05-10T10:01:44.268Z,47.60
2018-05-10T10:04:11.699Z,46.50
2018-05-10T10:06:39.138Z,46.90
2018-05-10T10:09:06.581Z,46.40
2018-05-10T10:11:34.076Z,46.10
2018-05-10T10:14:01.430Z,46.10
2018-05-10T10:16:28.878Z,46.70
2018-05-10T10:18:57.062Z,48.00
2018-05-10T10:21:24.500Z,47.80
2018-05-10T10:23:51.923Z,48.00
2018-05-10T10:26:19.394Z,48.50
2018-05-10T10:28:46.830Z,49.70
2018-05-10T10:31:14.286Z,48.90
2018-05-10T10:34:01.910Z,47.20
2018-05-10T10:39:13.650Z,46.00
2018-05-10T10:41:41.350Z,46.50
2018-05-10T10:44:08.804Z,46.50
2018-05-10T10:46:36.234Z,45.90
2018-05-10T10:49:03.658Z,45.60
2018-05-10T10:51:31.094Z,46.00
2018-05-10T10:53:58.656Z,46.30
2018-05-10T10:56:26.031Z,45.70
2018-05-10T10:58:53.467Z,45.00
2018-05-10T11:01:20.939Z,45.30
2018-05-10T11:03:48.498Z,45.30
2018-05-10T11:06:15.935Z,44.00
2018-05-10T11:08:43.358Z,42.40
2018-05-10T11:11:10.795Z,41.00
2018-05-10T11:13:38.226Z,40.30
2018-05-10T11:16:05.665Z,40.00
2018-05-10T11:18:33.116Z,38.80
2018-05-10T11:21:00.550Z,37.20
2018-05-10T11:23:28.013Z,36.80
2018-05-10T11:25:55.537Z,36.10
2018-05-10T11:28:22.973Z,35.60
2018-05-10T11:30:50.403Z,36.10
2018-05-10T11:33:17.860Z,36.70
2018-05-10T11:35:45.262Z,37.00
2018-05-10T11:38:12.694Z,36.60
2018-05-10T11:40:40.136Z,35.00
2018-05-10T11:43:07.588Z,35.90
2018-05-10T11:45:35.037Z,35.50
2018-05-10T11:48:02.487Z,36.40
2018-05-10T11:50:29.916Z,36.00
2018-05-10T11:52:57.354Z,34.80
2018-05-10T11:55:24.782Z,33.90
2018-05-10T11:57:52.244Z,34.10
2018-05-10T12:00:19.689Z,34.20
2018-05-10T12:02:47.167Z,34.60
2018-05-10T12:05:14.608Z,33.20
2018-05-10T12:07:42.034Z,32.10
2018-05-10T12:10:09.487Z,31.40
2018-05-10T12:12:36.935Z,31.80
2018-05-10T12:15:04.372Z,33.30
2018-05-10T12:17:31.823Z,35.80
2018-05-10T12:19:59.271Z,37.80
2018-05-10T12:22:26.723Z,39.10
2018-05-10T12:24:54.154Z,40.30
2018-05-10T12:27:21.623Z,41.00
2018-05-10T12:29:49.090Z,41.30
2018-05-10T12:32:16.542Z,40.60
2018-05-10T12:34:43.978Z,39.40
2018-05-10T12:37:11.414Z,36.50
2018-05-10T12:39:38.859Z,33.00
2018-05-10T12:42:07.099Z,29.10
2018-05-10T12:44:34.523Z,29.00
2018-05-10T12:47:01.963Z,28.20
2018-05-10T12:49:29.394Z,27.40
2018-05-10T12:51:56.838Z,27.40
2018-05-10T12:54:24.318Z,29.10
2018-05-10T12:56:51.776Z,30.30
2018-05-10T12:59:19.203Z,31.50
2018-05-10T13:01:46.647Z,32.40
2018-05-10T13:04:14.087Z,33.80
2018-05-10T13:06:41.574Z,34.00
2018-05-10T13:09:08.986Z,34.40
2018-05-10T13:11:36.423Z,34.00
2018-05-10T13:14:04.631Z,28.30
2018-05-10T13:16:32.054Z,28.20
2018-05-10T13:18:59.498Z,26.60
2018-05-10T13:21:26.946Z,26.20
2018-05-10T13:23:54.383Z,25.60
2018-05-10T13:26:21.822Z,24.70
2018-05-10T13:28:49.277Z,24.20
2018-05-10T13:31:16.704Z,23.80
2018-05-10T13:33:44.146Z,23.80
2018-05-10T13:36:12.335Z,23.10
2018-05-10T13:38:39.788Z,23.00
2018-05-10T13:41:07.267Z,22.70
2018-05-10T13:43:34.676Z,22.30
2018-05-10T13:46:02.903Z,24.10
2018-05-10T13:48:31.118Z,23.80
2018-05-10T13:50:58.563Z,23.70
2018-05-10T13:53:25.994Z,23.60
2018-05-10T13:55:53.423Z,24.50
2018-05-10T13:58:20.879Z,25.20
2018-05-10T14:00:49.125Z,25.00
2018-05-10T14:03:16.539Z,25.00
2018-05-10T14:05:43.987Z,24.50
2018-05-10T14:08:11.435Z,24.50
2018-05-10T14:10:38.867Z,24.90
2018-05-10T14:13:06.299Z,24.90
2018-05-10T14:15:33.771Z,25.40
2018-05-10T14:18:01.206Z,25.90
2018-05-10T14:20:28.642Z,26.90
2018-05-10T14:22:56.083Z,28.40
2018-05-10T14:25:23.529Z,29.60
2018-05-10T14:27:50.955Z,30.30
2018-05-10T14:30:18.395Z,31.10
2018-05-10T14:32:45.851Z,32.00
2018-05-10T14:35:13.270Z,33.00
2018-05-10T14:37:40.728Z,32.50
2018-05-10T14:40:08.168Z,32.30
2018-05-10T14:42:35.611Z,32.80
2018-05-10T14:45:03.891Z,33.30
2018-05-10T14:47:31.346Z,33.20
2018-05-10T14:49:58.795Z,32.90
2018-05-10T14:52:27.001Z,29.50
2018-05-10T14:54:54.455Z,29.40
2018-05-10T14:57:21.902Z,28.10
2018-05-10T14:59:49.385Z,27.30
2018-05-10T15:02:17.549Z,28.60
2018-05-10T15:04:44.975Z,28.50
2018-05-10T15:07:13.196Z,29.10
2018-05-10T15:09:40.638Z,29.00
2018-05-10T15:12:08.102Z,29.70
2018-05-10T15:14:35.526Z,31.00
2018-05-10T15:17:02.980Z,32.20
2018-05-10T15:19:30.419Z,33.50
2018-05-10T15:21:57.853Z,34.70
2018-05-10T15:24:25.291Z,36.10
2018-05-10T15:26:52.719Z,37.10
2018-05-10T15:29:20.309Z,38.50
2018-05-10T15:31:47.750Z,39.80
2018-05-10T15:34:15.177Z,40.70
2018-05-10T15:36:42.615Z,41.40
2018-05-10T15:39:10.131Z,42.60
2018-05-10T15:41:37.510Z,42.80
2018-05-10T15:44:04.943Z,43.30
2018-05-10T15:46:32.388Z,43.90
2018-05-10T15:48:59.836Z,44.50
2018-05-10T15:51:27.362Z,45.00
2018-05-10T15:53:55.580Z,46.60
2018-05-10T15:56:23.148Z,46.50
2018-05-10T15:58:50.582Z,47.10
2018-05-10T16:01:18.023Z,47.70
2018-05-10T16:03:46.252Z,47.70
2018-05-10T16:06:13.685Z,47.70
2018-05-10T16:08:41.125Z,46.80
2018-05-10T16:11:08.571Z,44.40
2018-05-10T16:13:36.022Z,42.90
2018-05-10T16:16:03.446Z,42.60
2018-05-10T16:18:30.911Z,40.60
2018-05-10T16:20:58.342Z,35.50
2018-05-10T16:23:25.787Z,31.10
2018-05-10T16:25:53.225Z,32.60
2018-05-10T16:28:20.667Z,32.50
2018-05-10T16:30:48.854Z,30.10
2018-05-10T16:33:16.292Z,30.00
2018-05-10T16:35:43.734Z,29.70
2018-05-10T16:38:11.172Z,29.40
2018-05-10T16:40:38.608Z,29.30
2018-05-10T16:43:06.046Z,30.20
2018-05-10T16:45:33.472Z,33.50
2018-05-10T16:48:01.669Z,38.50
2018-05-10T16:50:29.133Z,38.30
2018-05-10T16:52:56.562Z,40.40
2018-05-10T16:55:24.023Z,42.00
2018-05-10T16:57:51.479Z,43.50
2018-05-10T17:00:18.908Z,44.70
2018-05-10T17:02:46.365Z,45.90
2018-05-10T17:05:13.794Z,46.70
2018-05-10T17:07:41.242Z,48.20
2018-05-10T17:10:08.683Z,49.70
2018-05-10T17:12:36.128Z,50.60
2018-05-10T17:15:03.576Z,51.40
2018-05-10T17:17:31.770Z,53.20
2018-05-10T17:19:59.226Z,53.10
2018-05-10T17:22:26.694Z,53.90
2018-05-10T17:24:54.139Z,54.10
2018-05-10T17:27:21.579Z,54.90
2018-05-10T17:29:49.018Z,56.00
2018-05-10T17:32:16.461Z,57.00
2018-05-10T17:34:43.906Z,58.10
2018-05-10T17:37:11.362Z,58.90
2018-05-10T17:39:38.803Z,59.40
2018-05-10T17:42:06.252Z,60.20
2018-05-10T17:44:33.678Z,61.20
2018-05-10T17:47:01.893Z,64.60
2018-05-10T17:49:29.336Z,64.40
2018-05-10T17:51:56.799Z,66.00
2018-05-10T17:54:24.234Z,67.10
2018-05-10T17:56:51.696Z,68.10
2018-05-10T17:59:19.120Z,68.60
2018-05-10T18:01:46.572Z,70.00
2018-05-10T18:04:13.999Z,71.20
2018-05-10T18:06:41.448Z,71.70
2018-05-10T18:09:08.895Z,72.90
2018-05-10T18:11:36.353Z,73.50
2018-05-10T18:14:03.791Z,74.80
2018-05-10T18:16:31.255Z,75.40
2018-05-10T18:18:58.691Z,75.90
2018-05-10T18:21:26.932Z,77.80
2018-05-10T18:23:54.370Z,77.70
2018-05-10T18:26:21.815Z,80.00
2018-05-10T18:28:49.249Z,82.30
2018-05-10T18:31:16.681Z,83.90
2018-05-10T18:33:44.147Z,85.60
2018-05-10T18:36:11.555Z,86.30
2018-05-10T18:38:38.998Z,86.20
2018-05-10T18:41:06.435Z,86.60
2018-05-10T18:43:33.887Z,87.90
2018-05-10T18:46:01.456Z,89.00
2018-05-10T18:48:28.878Z,89.10
2018-05-10T18:50:56.314Z,89.10
2018-05-10T18:53:23.755Z,89.40
2018-05-10T18:55:51.195Z,89.90
2018-05-10T18:58:18.661Z,90.50
2018-05-10T19:00:46.093Z,92.50
2018-05-10T19:03:13.514Z,96.50
2018-05-10T19:05:40.946Z,99.90
2018-05-10T19:08:08.378Z,99.90
2018-05-10T19:10:35.823Z,99.90
2018-05-10T19:13:03.266Z,99.90
2018-05-10T19:15:30.725Z,99.90
2018-05-10T19:17:58.126Z,99.90
2018-05-10T19:20:25.578Z,99.90
2018-05-10T19:22:53.027Z,99.90
2018-05-10T19:25:20.494Z,99.90
2018-05-10T19:27:47.933Z,99.90
2018-05-10T19:30:15.376Z,99.90
2018-05-10T19:32:42.794Z,99.90
2018-05-10T19:35:10.230Z,99.90
2018-05-10T19:37:37.679Z,99.90
2018-05-10T19:40:05.119Z,99.90
2018-05-10T19:42:32.551Z,99.90
2018-05-10T19:44:59.984Z,99.90
2018-05-10T19:47:28.174Z,99.90
2018-05-10T19:49:55.617Z,99.90
2018-05-10T19:52:23.326Z,99.90
2018-05-10T19:54:50.781Z,99.90
2018-05-10T19:57:19.057Z,99.90
2018-05-10T19:59:46.478Z,99.90
2018-05-10T20:02:13.907Z,99.90
2018-05-10T20:04:41.334Z,99.90
2018-05-10T20:07:08.770Z,99.90
2018-05-10T20:09:36.226Z,99.90
2018-05-10T20:12:03.680Z,99.90
2018-05-10T20:14:31.102Z,99.90
2018-05-10T20:16:58.627Z,99.90
2018-05-10T20:19:25.986Z,99.90
2018-05-10T20:21:53.432Z,99.90
2018-05-10T20:24:21.638Z,99.90
2018-05-10T20:26:49.075Z,99.90
2018-05-10T20:29:16.534Z,99.90
2018-05-10T20:31:43.957Z,99.90
2018-05-10T20:34:11.405Z,99.90
2018-05-10T20:36:38.866Z,99.90
2018-05-10T20:39:06.307Z,99.90
2018-05-10T20:41:33.756Z,99.90
2018-05-10T20:44:01.166Z,99.90
2018-05-10T20:46:28.618Z,99.90
2018-05-10T20:48:56.068Z,99.90
2018-05-10T20:51:23.508Z,99.90
2018-05-10T20:53:50.954Z,99.90
2018-05-10T20:56:18.402Z,99.90
2018-05-10T20:58:46.607Z,99.90
2018-05-10T21:01:14.051Z,99.90
2018-05-10T21:03:41.562Z,99.90
2018-05-10T21:06:08.918Z,99.90
2018-05-10T21:08:36.346Z,99.90
2018-05-10T21:11:03.810Z,99.90
2018-05-10T21:13:31.253Z,99.90
2018-05-10T21:15:58.695Z,99.90
2018-05-10T21:18:26.149Z,99.90
2018-05-10T21:20:53.590Z,99.90
2018-05-10T21:23:21.799Z,99.90
2018-05-10T21:25:49.236Z,99.90
2018-05-10T21:28:16.662Z,99.90
2018-05-10T21:30:44.857Z,99.90
2018-05-10T21:33:12.306Z,99.90
2018-05-10T21:35:39.746Z,99.90
2018-05-10T21:38:07.171Z,99.90
2018-05-10T21:40:34.658Z,99.90
2018-05-10T21:43:02.085Z,99.90
2018-05-10T21:45:29.534Z,99.90
2018-05-10T21:47:56.985Z,99.90
2018-05-10T21:50:27.382Z,99.90
2018-05-10T21:52:55.623Z,99.90
2018-05-10T21:55:23.051Z,99.90
2018-05-10T21:57:50.497Z,99.90
2018-05-10T22:00:17.990Z,99.90
2018-05-10T22:02:45.435Z,99.90
2018-05-10T22:05:12.874Z,99.90
2018-05-10T22:07:40.322Z,99.90
2018-05-10T22:10:07.749Z,99.90
2018-05-10T22:12:35.190Z,99.90
2018-05-10T22:15:02.622Z,99.90
2018-05-10T22:17:30.058Z,99.90
2018-05-10T22:19:57.496Z,99.90
2018-05-10T22:22:24.934Z,99.90
2018-05-10T22:24:53.150Z,99.90
2018-05-10T22:27:20.588Z,99.90
2018-05-10T22:29:48.044Z,99.90
2018-05-10T22:32:15.466Z,99.90
2018-05-10T22:34:42.903Z,99.90
2018-05-10T22:37:10.351Z,99.90
2018-05-10T22:39:37.794Z,99.90
2018-05-10T22:42:05.226Z,99.90
2018-05-10T22:44:32.675Z,99.90
2018-05-10T22:47:00.210Z,99.90
2018-05-10T22:49:27.702Z,99.90
2018-05-10T22:51:55.137Z,99.90
2018-05-10T22:54:22.590Z,99.90
2018-05-10T22:56:50.044Z,99.90
2018-05-10T22:59:18.266Z,99.90
2018-05-10T23:01:45.726Z,99.90
2018-05-10T23:04:13.162Z,99.90
2018-05-10T23:06:40.613Z,99.90
2018-05-10T23:09:08.050Z,99.90
2018-05-10T23:11:35.492Z,99.90
2018-05-10T23:14:02.923Z,99.90
2018-05-10T23:16:30.380Z,99.90
2018-05-10T23:18:57.816Z,99.90
2018-05-10T23:21:25.281Z,99.90
2018-05-10T23:23:52.718Z,99.90
2018-05-10T23:26:20.161Z,99.90
2018-05-10T23:28:48.350Z,99.90
2018-05-10T23:31:15.995Z,99.90
2018-05-10T23:33:43.438Z,99.90
2018-05-10T23:36:10.862Z,99.90
2018-05-10T23:38:38.307Z,99.90
2018-05-10T23:41:05.771Z,99.90
2018-05-10T23:43:33.209Z,99.90
2018-05-10T23:46:00.646Z,99.90
2018-05-10T23:48:28.102Z,99.90
2018-05-10T23:50:55.558Z,99.90
2018-05-10T23:53:23.003Z,99.90
2018-05-10T23:55:51.236Z,99.90
2018-05-10T23:58:19.492Z,99.90
